Terminal Aerodrome Forecast
Issued by NWS King Salmon, AK

Home | Current Version | Previous Version | Text Only | Print | Product List | Glossary On
Versions: 1 2 3 4 5 6 7 8 9 10 11 12 13
000
FTAK31 PANC 212000 AAA
TAFAKN
TAF AMD
PAKN 212000Z 2120/2218 10004KT 5SM -RA BR SCT005 OVC015
      TEMPO 2120/2124 2SM -RA BR BKN005
     FM220500 VRB06KT 4SM -RA BR OVC007=

USA.gov is the U.S. government's official web portal to all federal, state and local government web resources and services.